Aeroporto :
LOGIN :

Iscrizione | Disclaimer

   EN    FR    IT 

 










Sommario :    VFR   VFR Marginale   IFR   IFR Intensivo   IFR Molto Intensivo
Visibilità : 
Base nubi : 
>= 8 km
>= 3000ft
5 / 8 km
1000 / 3000 ft
1500m / 5 km
500 / 1000 ft
800 / 1500m
200 / 500 ft
< 800m
< 200 ft
Simboli :   Temporali  Nebbia  Neve Forte  Precipitazioni Forti  Vento > 20 kt
SIGMETs :   Varie  Temporali  Ghiacco  Turbolenza  Onda orograficha  Ceneri Vulcaniche






- Altitudine del aeroporto : 584 ft


LFPV - Villacoublay Vélizy

ULTIMO METAR :
  • 181700Z AUTO 36005KT 9999 FEW017 SCT038 05/03 Q1028 NOSIG

METARs OBSOLETI :
  • 181630Z AUTO 35004KT 9999 FEW019 06/03 Q1028 NOSIG
  • 181600Z AUTO 35004KT 9999 FEW040 06/03 Q1028 NOSIG
  • 181530Z AUTO 35004KT 320V020 9999 SCT038 07/03 Q1028 NOSIG
  • 181500Z AUTO 36006KT 9999 FEW030 SCT038 07/03 Q1027 NOSIG
  • 181430Z AUTO 34006KT 280V020 9999 SCT025 BKN040 08/03 Q1027 NOSIG

TAF TAF LFPV
Valido dal 18 a 15 ore il 19 a 15 ore UTC


181400Z 1815/1915 01005KT CAVOK
PROB30 1903/1909 3000 BR



MetMap, La meteo Aeronautica in un colpo d'occhio ! - Copyright ORBIFLY Dicembre 2007 - Disclaimer

ORBIFLY MET'MAP TEAM :

Programmazione e sviluppo : Alexandra Zaïnal
Concezione : Baudouin d'Aumeries
Aiuto per la programmazione : Marc-Olivier Méhu
Supporto tecnico e logistico : Manuel Goepfert
Aiuto per la traduzione : Arnaldo La Scala

Contatto : metmap@orbifly.com




FONTI E CREDITI :

   NOAA